Great Bend, North Dakota
Current Conditions -  °F | °C
As of 2:15 PM on Friday 19 Dec 2014 (Local Time) from KBWP Reporting Station
Overcast Overcast  
Wind Chill: 24°   Ceiling: 900
Heat Index: 32°   Visibility: 5mi
Dew Point: 28°   Wind: 10mph
Humidity: 87%   Direction: 170°S
Pressure: 30.04"   Gusts: NA
Location:  46.15°N, 96.8°W
Report Text: KBWP 192015Z AUTO 17009KT 5SM OVC009 00/M02 A3004 RMK AO1
Loading
Personal Weather Stations






























Interactive Weather Map New forecast layout! Learn more

10-Day Weather Forecast

Advertisements
Track Severe Weather on mobile